Time;durP1;ratioP1;P1;durP2;ratioP2;P2;SDS_P1;SDS_P2;PMS_P1;PMS_P2;Temp;Humidity;BMP_temperature;BMP_pressure;BME280_temperature;BME280_humidity;BME280_pressure;Samples;Min_cycle;Max_cycle;Signal;HPM_P1;HPM_P2
2022/03/01 00:01:54;;;;;;;4.10;2.40;;;;;;;18.63;36.56;101912.50;101612;1347;61227;-83
2022/03/01 00:05:28;;;;;;;5.10;2.50;;;;;;;18.63;36.56;101913.90;101827;1341;62056;-82
2022/03/01 00:08:23;;;;;;;4.30;2.50;;;;;;;18.63;36.60;101915.16;101583;1345;71679;-82
2022/03/01 00:11:08;;;;;;;4.60;2.60;;;;;;;18.64;36.57;101914.23;101429;1350;74858;-79
2022/03/01 00:14:14;;;;;;;4.50;2.40;;;;;;;18.64;36.57;101906.55;101446;1350;61440;-85
2022/03/01 00:16:54;;;;;;;;;;;;;;;;;;;;;
2022/03/01 00:19:48;;;;;;;5.70;2.80;;;;;;;18.65;36.53;101898.00;101559;1344;73606;-81
2022/03/01 00:22:45;;;;;;;5.50;3.20;;;;;;;18.64;36.59;101903.52;101514;1348;75269;-83
2022/03/01 00:25:31;;;;;;;5.10;2.80;;;;;;;18.65;36.56;101904.58;101525;1349;61445;-85
2022/03/01 00:28:21;;;;;;;6.40;2.80;;;;;;;18.65;36.53;101901.17;101491;1349;61338;-84
2022/03/01 00:31:15;;;;;;;5.10;2.70;;;;;;;18.65;36.56;101899.74;101596;1345;73197;-83
2022/03/01 00:34:01;;;;;;;4.60;2.80;;;;;;;18.65;36.56;101902.05;101693;1345;75993;-84
2022/03/01 00:36:51;;;;;;;5.00;3.00;;;;;;;18.66;36.63;101900.25;101697;1345;61523;-83
2022/03/01 00:39:47;;;;;;;4.50;2.80;;;;;;;18.66;36.52;101897.55;101676;1345;61404;-89
2022/03/01 00:43:14;;;;;;;4.40;2.70;;;;;;;18.66;36.53;101894.02;101439;1351;71579;-83
2022/03/01 00:46:05;;;;;;;4.80;2.80;;;;;;;18.66;36.61;101899.89;101624;1343;74145;-81
2022/03/01 00:49:11;;;;;;;4.70;2.80;;;;;;;18.66;36.63;101902.73;101740;1341;61547;-82
2022/03/01 00:52:09;;;;;;;6.40;3.10;;;;;;;18.66;36.60;101904.52;101731;1343;61414;-82
2022/03/01 00:55:45;;;;;;;4.90;3.10;;;;;;;18.66;36.53;101904.85;101925;1337;73147;-83
2022/03/01 00:58:34;;;;;;;5.00;3.10;;;;;;;18.66;36.49;101906.82;101833;1340;74863;-80
2022/03/01 01:01:38;;;;;;;5.70;3.30;;;;;;;18.66;36.60;101912.17;101926;1339;61408;-84
2022/03/01 01:04:28;;;;;;;5.20;3.10;;;;;;;18.67;36.57;101913.94;101942;1338;61093;-84
2022/03/01 01:07:26;;;;;;;5.40;3.30;;;;;;;18.68;36.61;101914.09;101908;1337;73044;-82
2022/03/01 01:10:17;;;;;;;5.30;3.20;;;;;;;18.67;36.64;101907.14;101818;1341;75202;-79
2022/03/01 01:13:05;;;;;;;6.20;3.10;;;;;;;18.68;36.60;101905.15;101597;1346;62374;-82
2022/03/01 01:16:02;;;;;;;5.60;3.20;;;;;;;18.68;36.64;101908.34;101617;1347;61206;-79
2022/03/01 01:19:18;;;;;;;;;;;;;;;;;;;;;
2022/03/01 01:25:23;;;;;;;6.00;3.20;;;;;;;18.68;36.58;101916.91;101792;1341;61588;-87
2022/03/01 01:28:22;;;;;;;5.20;3.00;;;;;;;18.68;36.55;101916.54;101804;1342;61597;-80
2022/03/01 01:31:40;;;;;;;4.80;2.90;;;;;;;18.68;36.49;101914.92;101809;1341;73983;-85
2022/03/01 01:34:25;;;;;;;5.10;2.90;;;;;;;18.68;36.65;101917.42;101589;1346;75192;-86
2022/03/01 01:37:03;;;;;;;5.70;3.10;;;;;;;18.69;36.68;101922.21;101584;1347;61726;-86
2022/03/01 01:39:49;;;;;;;4.20;2.80;;;;;;;18.69;36.54;101923.80;101555;1347;61231;-83
2022/03/01 01:42:52;;;;;;;5.80;3.10;;;;;;;18.69;36.51;101921.13;101543;1348;73978;-83
2022/03/01 01:45:38;;;;;;;4.90;2.90;;;;;;;18.69;36.62;101918.66;101207;1352;76209;-84
2022/03/01 01:49:00;;;;;;;6.50;2.90;;;;;;;18.69;36.57;101924.88;101188;1352;61330;-83
2022/03/01 01:51:58;;;;;;;;;;;;;;;;;;;;;
2022/03/01 01:55:09;;;;;;;;;;;;;;;;;;;;;
2022/03/01 01:58:02;;;;;;;4.80;3.00;;;;;;;18.70;36.63;101922.02;101549;1348;75270;-83
2022/03/01 02:00:50;;;;;;;5.60;3.40;;;;;;;18.70;36.50;101925.39;101668;1345;61383;-83
2022/03/01 02:03:36;;;;;;;;;;;;;;;;;;;;;
2022/03/01 02:06:38;;;;;;;4.80;3.00;;;;;;;18.70;36.49;101918.61;101438;1350;73944;-80
2022/03/01 02:09:33;;;;;;;5.50;3.10;;;;;;;18.70;36.56;101913.95;101588;1347;74963;-83
2022/03/01 02:12:25;;;;;;;5.50;3.00;;;;;;;18.70;36.57;101915.37;101674;1344;61504;-79
2022/03/01 02:15:17;;;;;;;4.60;3.00;;;;;;;18.71;36.53;101915.89;101749;1344;61222;-82
2022/03/01 02:18:04;;;;;;;4.70;2.80;;;;;;;18.70;36.42;101912.35;101534;1347;72960;-83
2022/03/01 02:20:46;;;;;;;4.70;2.90;;;;;;;18.70;36.54;101914.50;101551;1347;74906;-87
2022/03/01 02:24:10;;;;;;;5.30;3.10;;;;;;;18.71;36.54;101913.41;101620;1345;61321;-84
2022/03/01 02:27:00;;;;;;;5.70;3.40;;;;;;;18.71;36.55;101917.13;101602;1347;62184;-83
2022/03/01 02:30:12;;;;;;;4.30;2.90;;;;;;;18.71;36.58;101920.17;101611;1346;71703;-85
2022/03/01 02:33:03;;;;;;;4.50;2.90;;;;;;;18.71;36.55;101918.39;101662;1343;75937;-88
2022/03/01 02:35:50;;;;;;;5.20;3.00;;;;;;;18.71;36.60;101916.60;101727;1343;61387;-83
2022/03/01 02:38:44;;;;;;;4.70;2.80;;;;;;;18.72;36.60;101913.19;101987;1337;61329;-83
2022/03/01 02:41:51;;;;;;;;;;;;;;;;;;;;;
2022/03/01 02:44:49;;;;;;;5.20;3.10;;;;;;;18.71;36.50;101906.23;102369;1332;75830;-84
2022/03/01 02:47:46;;;;;;;5.30;2.90;;;;;;;18.71;36.62;101907.31;102417;1332;60434;-84
2022/03/01 02:50:32;;;;;;;4.60;2.80;;;;;;;18.71;36.55;101906.77;102687;1328;61324;-84
2022/03/01 02:56:50;;;;;;;;;;;;;;;;;;;;;
2022/03/01 02:59:29;;;;;;;6.10;3.30;;;;;;;18.72;36.60;101894.27;102024;1338;61193;-81
2022/03/01 03:02:25;;;;;;;4.70;2.70;;;;;;;18.72;36.61;101889.45;101998;1338;61453;-82
2022/03/01 03:05:38;;;;;;;4.90;3.00;;;;;;;18.72;36.51;101886.23;102474;1331;73039;-85
2022/03/01 03:08:46;;;;;;;5.10;3.00;;;;;;;18.73;36.52;101888.71;102524;1332;74007;-84
2022/03/01 03:11:49;;;;;;;5.00;3.00;;;;;;;18.72;36.52;101883.74;102411;1332;61207;-82
2022/03/01 03:14:38;;;;;;;4.20;2.90;;;;;;;18.72;36.51;101881.59;102403;1332;61375;-84
2022/03/01 03:17:23;;;;;;;4.60;2.80;;;;;;;18.73;36.56;101876.73;102396;1332;74773;-86
2022/03/01 03:20:26;;;;;;;;;;;;;;;;;;;;;
2022/03/01 03:23:17;;;;;;;4.60;2.70;;;;;;;18.73;36.56;101879.41;102012;1338;61315;-79
2022/03/01 03:26:16;;;;;;;;;;;;;;;;;;;;;
2022/03/01 03:29:02;;;;;;;5.20;3.10;;;;;;;18.73;36.49;101871.20;101859;1341;72758;-83
2022/03/01 03:32:04;;;;;;;;;;;;;;;;;;;;;
2022/03/01 03:35:04;;;;;;;4.60;2.80;;;;;;;18.73;36.47;101860.85;102637;1329;61241;-79
2022/03/01 03:38:18;;;;;;;4.10;2.80;;;;;;;18.74;36.43;101862.42;102544;1329;61205;-80
2022/03/01 03:40:57;;;;;;;4.80;2.50;;;;;;;18.74;36.44;101864.41;102731;1329;72755;-85
2022/03/01 03:44:44;;;;;;;4.80;2.70;;;;;;;18.73;36.54;101863.36;102697;1329;72501;-85
2022/03/01 03:47:48;;;;;;;4.50;2.80;;;;;;;18.73;36.47;101862.82;102628;1329;62006;-83
2022/03/01 03:50:43;;;;;;;4.50;2.90;;;;;;;18.74;36.53;101862.08;103045;1323;61325;-84
2022/03/01 03:53:48;;;;;;;;;;;;;;;;;;;;;
2022/03/01 03:56:54;;;;;;;4.00;2.30;;;;;;;18.75;36.52;101862.40;103199;1322;75131;-81
2022/03/01 03:59:41;;;;;;;4.20;2.80;;;;;;;18.75;36.59;101858.63;103131;1317;61297;-79
2022/03/01 04:02:51;;;;;;;4.30;2.60;;;;;;;18.74;36.49;101856.71;103229;1317;61125;-81
2022/03/01 04:05:57;;;;;;;5.20;2.50;;;;;;;18.75;36.33;101857.20;103963;1316;73404;-82
2022/03/01 04:08:43;;;;;;;4.20;2.90;;;;;;;18.75;36.50;101848.83;104122;1316;77001;-82
2022/03/01 04:11:51;;;;;;;4.50;2.70;;;;;;;18.76;36.41;101845.77;104081;1316;61274;-82
2022/03/01 04:14:47;;;;;;;3.90;2.60;;;;;;;18.75;36.46;101843.82;104147;1316;61206;-82
2022/03/01 04:17:50;;;;;;;5.50;2.60;;;;;;;18.76;36.40;101851.27;104110;1316;73902;-82
2022/03/01 04:20:47;;;;;;;;;;;;;;;;;;;;;
2022/03/01 04:23:59;;;;;;;4.80;2.60;;;;;;;18.76;36.41;101850.20;103126;1323;61329;-83
2022/03/01 04:27:02;;;;;;;;;;;;;;;;;;;;;
2022/03/01 04:30:11;;;;;;;;;;;;;;;;;;;;;
2022/03/01 04:33:20;;;;;;;4.40;2.60;;;;;;;18.76;36.37;101857.86;103211;1323;75690;-86
2022/03/01 04:36:26;;;;;;;4.10;2.60;;;;;;;18.76;36.29;101860.73;102670;1329;61069;-84
2022/03/01 04:39:26;;;;;;;;;;;;;;;;;;;;;
2022/03/01 04:42:03;;;;;;;5.10;2.90;;;;;;;18.76;36.08;101861.42;102684;1329;73049;-83
2022/03/01 04:45:26;;;;;;;4.20;2.80;;;;;;;18.77;36.13;101856.77;102561;1329;73873;-84
2022/03/01 04:48:08;;;;;;;5.10;2.80;;;;;;;18.77;35.93;101856.06;102555;1329;61797;-82
2022/03/01 04:51:21;;;;;;;;;;;;;;;;;;;;;
2022/03/01 04:54:14;;;;;;;5.70;3.10;;;;;;;18.77;35.74;101857.68;102575;1329;74047;-81
2022/03/01 04:57:17;;;;;;;4.80;2.90;;;;;;;18.78;35.66;101861.58;102511;1326;75674;-85
2022/03/01 05:00:12;;;;;;;4.50;3.00;;;;;;;18.77;35.50;101862.83;102552;1329;61356;-84
2022/03/01 05:02:57;;;;;;;4.40;3.00;;;;;;;18.77;35.42;101871.92;102705;1329;61210;-82
2022/03/01 05:05:51;;;;;;;5.10;2.80;;;;;;;18.77;35.41;101872.83;102742;1329;71597;-87
2022/03/01 05:08:47;;;;;;;5.00;2.80;;;;;;;18.76;35.26;101868.02;103109;1323;75804;-82
2022/03/01 05:11:40;;;;;;;5.30;3.10;;;;;;;18.77;35.19;101864.27;102512;1329;61567;-84
2022/03/01 05:14:27;;;;;;;5.30;3.30;;;;;;;18.76;34.93;101856.99;102728;1326;61271;-80
2022/03/01 05:17:45;;;;;;;4.70;3.00;;;;;;;18.75;34.90;101848.83;103303;1320;72787;-81
2022/03/01 05:20:41;;;;;;;6.30;3.30;;;;;;;18.75;34.73;101846.51;102448;1331;75985;-81
2022/03/01 05:23:32;;;;;;;5.50;3.20;;;;;;;18.76;34.68;101851.11;102023;1338;61304;-87
2022/03/01 05:26:26;;;;;;;5.90;2.90;;;;;;;18.75;34.59;101856.13;102039;1338;61336;-85
2022/03/01 05:29:04;;;;;;;5.00;2.90;;;;;;;18.75;34.49;101861.66;102005;1338;73186;-80
2022/03/01 05:31:53;;;;;;;5.70;3.10;;;;;;;18.74;34.52;101861.22;101913;1338;74932;-82
2022/03/01 05:34:22;;;;;;;5.50;3.10;;;;;;;18.72;34.49;101865.74;101859;1338;61379;-81
2022/03/01 05:36:58;;;;;;;5.50;3.30;;;;;;;18.69;34.27;101866.55;102028;1332;61512;-82
2022/03/01 05:39:24;;;;;;;8.10;3.50;;;;;;;18.67;34.20;101873.61;101962;1332;74357;-82
2022/03/01 05:41:53;;;;;;;5.40;2.90;;;;;;;18.64;34.04;101873.56;101933;1335;61387;-85
2022/03/01 05:44:24;;;;;;;5.60;3.50;;;;;;;18.63;33.93;101875.77;101960;1332;61315;-80
2022/03/01 05:46:49;;;;;;;7.10;3.40;;;;;;;18.60;33.77;101866.45;102125;1332;61029;-79
2022/03/01 05:49:26;;;;;;;5.40;3.30;;;;;;;18.58;33.66;101872.41;102322;1326;61198;-79
2022/03/01 05:51:53;;;;;;;5.70;3.10;;;;;;;18.55;33.62;101872.53;102964;1320;74811;-80
2022/03/01 05:54:44;;;;;;;5.50;3.30;;;;;;;18.51;33.41;101873.59;103051;1320;61292;-82
2022/03/01 05:57:12;;;;;;;6.20;3.50;;;;;;;18.44;33.43;101878.34;102233;1323;61663;-78
2022/03/01 05:59:50;;;;;;;5.70;3.20;;;;;;;18.40;33.35;101881.55;102486;1314;72828;-80
2022/03/01 06:02:16;;;;;;;7.20;3.80;;;;;;;18.35;33.39;101877.30;103222;1315;74854;-80
2022/03/01 06:04:45;;;;;;;7.80;3.30;;;;;;;18.32;33.48;101872.99;103297;1315;61919;-79
2022/03/01 06:07:12;;;;;;;9.50;3.80;;;;;;;18.28;33.39;101875.63;103403;1314;61090;-79
2022/03/01 06:09:44;;;;;;;9.50;3.30;;;;;;;18.26;33.38;101877.67;103170;1315;72825;-80
2022/03/01 06:12:15;;;;;;;7.30;3.50;;;;;;;18.26;33.24;101885.19;103345;1314;74791;-83
2022/03/01 06:14:46;;;;;;;7.00;3.70;;;;;;;18.24;33.32;101883.11;102756;1314;61434;-80
2022/03/01 06:17:15;;;;;;;9.30;4.00;;;;;;;18.24;33.20;101882.56;103416;1314;61280;-80
2022/03/01 06:19:40;;;;;;;8.30;3.80;;;;;;;18.26;33.04;101888.20;103417;1314;72843;-80
2022/03/01 06:22:06;;;;;;;6.40;3.60;;;;;;;18.29;32.86;101886.51;103274;1315;61309;-80
2022/03/01 06:24:38;;;;;;;5.90;3.20;;;;;;;18.31;32.89;101879.61;103456;1314;61395;-80
2022/03/01 06:27:05;;;;;;;7.10;3.60;;;;;;;18.35;32.81;101878.23;103271;1314;62906;-80
2022/03/01 06:29:33;;;;;;;5.50;3.50;;;;;;;18.38;32.82;101883.23;103164;1314;72800;-79
2022/03/01 06:31:59;;;;;;;6.10;3.20;;;;;;;18.42;32.83;101882.91;103527;1314;75858;-79
2022/03/01 06:34:24;;;;;;;9.70;3.30;;;;;;;18.46;32.80;101887.20;103485;1309;61391;-80
2022/03/01 06:36:50;;;;;;;8.70;3.40;;;;;;;18.49;32.88;101887.04;103703;1309;61502;-78
2022/03/01 06:39:19;;;;;;;7.00;3.60;;;;;;;18.53;32.81;101887.05;103759;1307;61369;-79
2022/03/01 06:41:47;;;;;;;9.80;3.10;;;;;;;18.57;33.11;101883.13;104076;1308;75847;-79
2022/03/01 06:44:13;;;;;;;8.30;3.20;;;;;;;18.61;33.23;101884.74;103747;1309;62923;-79
2022/03/01 06:46:39;;;;;;;10.00;3.70;;;;;;;18.65;33.31;101885.64;103296;1309;554357;-79
2022/03/01 06:49:04;;;;;;;7.50;3.20;;;;;;;18.69;33.52;101885.31;103776;1309;61327;-78
2022/03/01 06:51:30;;;;;;;10.10;3.30;;;;;;;18.72;33.64;101889.27;103526;1309;61301;-80
2022/03/01 06:53:56;;;;;;;10.10;3.80;;;;;;;18.75;33.99;101886.46;103515;1309;61342;-79
2022/03/01 06:56:21;;;;;;;9.10;3.40;;;;;;;18.76;34.19;101887.83;103557;1308;61310;-78
2022/03/01 06:58:48;;;;;;;10.70;3.50;;;;;;;18.78;34.21;101886.86;103721;1309;63261;-79
2022/03/01 07:01:14;;;;;;;12.40;3.70;;;;;;;18.80;34.49;101886.98;103519;1309;61476;-78
2022/03/01 07:03:42;;;;;;;10.20;3.50;;;;;;;18.81;34.70;101887.27;103486;1309;61378;-79
2022/03/01 07:06:10;;;;;;;9.60;3.20;;;;;;;18.83;34.82;101888.95;103662;1308;61562;-79
2022/03/01 07:08:39;;;;;;;13.10;3.30;;;;;;;18.86;35.19;101885.09;103664;1308;63069;-81
2022/03/01 07:11:05;;;;;;;14.50;3.80;;;;;;;18.88;35.32;101884.30;103688;1309;71822;-79
2022/03/01 07:13:32;;;;;;;9.90;3.20;;;;;;;18.90;35.45;101881.55;103648;1309;61314;-79
2022/03/01 07:15:57;;;;;;;12.00;4.00;;;;;;;18.93;35.71;101881.62;103645;1308;61351;-80
2022/03/01 07:18:23;;;;;;;15.10;3.40;;;;;;;18.95;35.68;101886.88;103690;1311;61307;-79
2022/03/01 07:20:51;;;;;;;14.40;3.60;;;;;;;18.97;35.72;101884.13;104246;1308;59398;-79
2022/03/01 07:23:17;;;;;;;11.40;3.40;;;;;;;18.98;35.85;101886.75;103691;1308;61379;-80
2022/03/01 07:25:43;;;;;;;19.30;3.60;;;;;;;18.99;35.99;101891.33;103885;1309;61263;-79
2022/03/01 07:28:16;;;;;;;12.80;3.50;;;;;;;19.01;36.15;101891.42;103936;1308;61152;-80
2022/03/01 07:30:44;;;;;;;11.90;3.20;;;;;;;19.01;36.10;101891.04;103806;1309;61268;-80
2022/03/01 07:33:10;;;;;;;12.60;3.70;;;;;;;19.02;36.11;101892.27;103711;1308;75693;-79
2022/03/01 07:36:01;;;;;;;9.10;3.60;;;;;;;19.02;36.07;101894.59;103769;1308;61850;-80
2022/03/01 07:38:28;;;;;;;13.90;3.80;;;;;;;19.01;35.99;101892.33;103356;1314;61171;-80
2022/03/01 07:40:54;;;;;;;9.00;3.30;;;;;;;19.01;35.84;101891.79;103307;1317;61370;-80
2022/03/01 07:43:20;;;;;;;10.60;3.60;;;;;;;19.01;36.02;101890.33;103340;1316;59684;-80
2022/03/01 07:45:47;;;;;;;8.80;3.70;;;;;;;19.01;35.96;101886.95;103032;1317;61695;-80
2022/03/01 07:48:13;;;;;;;8.20;3.60;;;;;;;19.02;35.90;101893.31;102919;1317;61461;-80
2022/03/01 07:50:39;;;;;;;7.80;3.20;;;;;;;19.02;35.92;101892.08;103001;1315;61446;-79
2022/03/01 07:53:05;;;;;;;10.90;3.70;;;;;;;19.02;35.81;101888.68;103250;1314;61388;-79
2022/03/01 07:55:31;;;;;;;10.60;3.90;;;;;;;18.98;35.88;101889.26;103092;1317;61347;-80
2022/03/01 07:58:01;;;;;;;16.10;4.30;;;;;;;18.91;35.82;101887.39;102871;1315;61315;-80
2022/03/01 08:00:27;;;;;;;14.30;4.10;;;;;;;18.86;35.87;101893.13;102836;1315;74156;-79
2022/03/01 08:02:53;;;;;;;16.00;4.10;;;;;;;18.83;35.93;101894.67;103220;1315;63429;-80
2022/03/01 08:05:19;;;;;;;18.50;4.90;;;;;;;18.83;35.92;101893.80;103179;1317;61237;-79
2022/03/01 08:07:46;;;;;;;27.50;4.90;;;;;;;18.83;36.42;101892.87;103236;1317;61592;-81
2022/03/01 08:10:15;;;;;;;13.70;4.30;;;;;;;18.85;36.49;101897.44;102877;1317;62627;-80
2022/03/01 08:12:40;;;;;;;16.70;4.60;;;;;;;18.88;36.46;101894.10;102974;1317;76112;-82
2022/03/01 08:15:09;;;;;;;14.30;4.20;;;;;;;18.91;36.66;101894.36;103197;1309;61573;-82
2022/03/01 08:17:49;;;;;;;19.40;4.40;;;;;;;18.93;36.85;101894.61;103663;1309;61205;-80
2022/03/01 08:20:15;;;;;;;20.00;4.30;;;;;;;18.95;37.00;101896.49;103827;1308;74241;-79
2022/03/01 08:22:44;;;;;;;10.10;4.30;;;;;;;18.97;37.08;101894.27;103767;1309;63019;-79
2022/03/01 08:25:09;;;;;;;16.50;4.00;;;;;;;18.99;36.95;101896.31;104005;1308;61259;-79
2022/03/01 08:27:35;;;;;;;12.60;3.60;;;;;;;19.00;37.16;101895.36;103792;1309;61305;-79
2022/03/01 08:30:04;;;;;;;14.60;4.20;;;;;;;19.02;37.12;101895.79;103789;1309;61303;-79
2022/03/01 08:32:30;;;;;;;9.60;3.60;;;;;;;19.04;37.12;101895.19;104185;1307;75727;-79
2022/03/01 08:34:56;;;;;;;14.90;3.80;;;;;;;19.05;37.43;101896.58;103881;1309;61312;-80
2022/03/01 08:37:30;;;;;;;12.50;4.20;;;;;;;19.06;37.60;101899.19;103831;1309;62056;-82
2022/03/01 08:40:19;;;;;;;14.30;4.40;;;;;;;19.07;37.60;101905.03;103675;1309;71644;-80
2022/03/01 08:42:45;;;;;;;14.10;4.50;;;;;;;19.06;37.53;101910.27;103666;1309;74887;-80
2022/03/01 08:45:14;;;;;;;10.20;5.00;;;;;;;19.03;37.45;101915.74;103676;1311;61338;-84
2022/03/01 08:47:42;;;;;;;12.40;4.80;;;;;;;18.98;37.39;101915.25;103890;1309;61708;-80
2022/03/01 08:50:36;;;;;;;8.60;4.50;;;;;;;18.92;36.92;101918.92;103867;1308;72808;-80
2022/03/01 08:53:02;;;;;;;12.00;5.40;;;;;;;18.83;36.63;101916.96;102434;1317;75812;-80
2022/03/01 08:55:28;;;;;;;15.20;5.30;;;;;;;18.71;36.51;101920.13;102875;1317;61555;-80
2022/03/01 08:57:54;;;;;;;10.80;5.90;;;;;;;18.62;36.35;101918.79;102593;1317;61181;-79
2022/03/01 09:00:20;;;;;;;9.50;5.30;;;;;;;18.54;36.22;101914.30;102524;1317;61488;-81
2022/03/01 09:02:46;;;;;;;10.20;5.10;;;;;;;18.46;36.13;101918.19;102832;1316;61339;-80
2022/03/01 09:05:12;;;;;;;6.20;4.10;;;;;;;18.41;36.00;101923.02;102421;1317;61221;-80
2022/03/01 09:07:38;;;;;;;11.80;5.10;;;;;;;18.39;35.85;101919.36;102852;1317;62022;-79
2022/03/01 09:10:06;;;;;;;15.80;5.70;;;;;;;18.40;35.79;101918.98;102597;1317;61171;-79
2022/03/01 09:12:34;;;;;;;13.80;5.70;;;;;;;18.43;35.73;101921.54;102810;1316;62986;-78
2022/03/01 09:15:00;;;;;;;12.30;5.00;;;;;;;18.47;35.73;101929.05;102940;1317;61295;-79
2022/03/01 09:17:27;;;;;;;13.50;5.10;;;;;;;18.51;35.66;101930.30;102907;1317;61430;-80
2022/03/01 09:19:53;;;;;;;11.40;4.70;;;;;;;18.55;35.69;101929.41;103011;1317;61487;-79
2022/03/01 09:22:18;;;;;;;13.90;4.40;;;;;;;18.59;35.65;101932.82;102917;1317;61297;-79
2022/03/01 09:24:45;;;;;;;12.90;4.90;;;;;;;18.60;35.87;101935.06;103204;1316;61600;-80
2022/03/01 09:27:11;;;;;;;10.80;4.60;;;;;;;18.62;35.88;101936.25;103197;1317;61622;-78
2022/03/01 09:29:39;;;;;;;7.70;4.00;;;;;;;18.64;35.78;101933.85;103330;1308;61115;-79
2022/03/01 09:32:09;;;;;;;13.80;4.40;;;;;;;18.66;35.68;101934.64;103695;1309;62709;-81
2022/03/01 09:34:35;;;;;;;10.10;4.10;;;;;;;18.68;35.63;101934.03;104017;1308;61184;-79
2022/03/01 09:37:01;;;;;;;8.90;4.00;;;;;;;18.69;35.41;101936.29;103819;1308;62167;-79
2022/03/01 09:39:27;;;;;;;8.40;3.90;;;;;;;18.70;35.43;101933.92;103502;1309;62305;-79
2022/03/01 09:41:59;;;;;;;8.90;3.80;;;;;;;18.71;35.40;101927.64;103903;1308;75762;-82
2022/03/01 09:44:25;;;;;;;9.10;3.80;;;;;;;18.72;35.28;101929.21;103837;1307;61595;-80
2022/03/01 09:46:50;;;;;;;11.00;3.60;;;;;;;18.74;35.11;101927.35;103794;1309;61341;-81
2022/03/01 09:49:18;;;;;;;10.50;3.90;;;;;;;18.75;35.09;101932.65;103679;1309;61263;-80
2022/03/01 09:52:08;;;;;;;7.20;4.00;;;;;;;18.77;34.95;101934.02;103602;1307;61314;-81
2022/03/01 09:54:34;;;;;;;11.10;4.30;;;;;;;18.64;34.32;101932.42;102995;1316;61458;-80
2022/03/01 09:57:01;;;;;;;8.50;4.40;;;;;;;18.36;33.94;101931.48;103014;1314;61294;-81
2022/03/01 09:59:29;;;;;;;15.60;4.60;;;;;;;18.18;34.03;101923.64;103170;1315;61355;-79
2022/03/01 10:01:54;;;;;;;12.90;4.50;;;;;;;18.15;34.64;101926.79;103002;1314;75670;-78
2022/03/01 10:04:25;;;;;;;17.60;4.30;;;;;;;18.18;34.85;101921.50;103226;1315;61486;-79
2022/03/01 10:06:53;;;;;;;16.60;4.10;;;;;;;18.21;34.83;101917.98;103263;1314;62614;-84
2022/03/01 10:09:26;;;;;;;14.40;4.10;;;;;;;18.27;35.11;101916.84;103476;1314;73808;-79
2022/03/01 10:11:53;;;;;;;14.70;4.40;;;;;;;18.31;35.25;101918.48;103577;1314;74924;-78
2022/03/01 10:14:29;;;;;;;13.60;4.30;;;;;;;18.35;35.34;101918.29;103030;1314;61584;-80
2022/03/01 10:16:55;;;;;;;11.60;3.70;;;;;;;18.40;35.40;101918.29;103710;1314;60584;-81
2022/03/01 10:19:21;;;;;;;12.40;3.80;;;;;;;18.41;35.34;101918.41;103007;1315;61349;-80
2022/03/01 10:21:48;;;;;;;8.30;3.60;;;;;;;18.41;35.16;101921.23;102931;1314;61562;-79
2022/03/01 10:24:19;;;;;;;11.20;3.80;;;;;;;18.42;35.08;101918.36;103094;1315;61494;-81
2022/03/01 10:26:45;;;;;;;8.70;3.90;;;;;;;18.44;34.86;101916.48;103017;1315;63045;-80
2022/03/01 10:29:41;;;;;;;10.10;3.70;;;;;;;18.47;34.88;101914.05;103541;1314;61413;-79
2022/03/01 10:32:10;;;;;;;8.40;3.50;;;;;;;18.49;34.80;101912.73;102696;1315;74665;-80
2022/03/01 10:34:59;;;;;;;;;;;;;;;18.50;34.91;101911.96;103004;1317;61774;-81
2022/03/01 10:37:26;;;;;;;8.80;3.50;;;;;;;18.49;34.78;101906.12;103302;1314;61210;-80
2022/03/01 10:40:08;;;;;;;9.40;3.60;;;;;;;18.50;34.67;101906.80;102952;1315;72847;-80
2022/03/01 10:42:34;;;;;;;7.60;3.50;;;;;;;18.47;34.79;101902.10;103089;1315;76805;-82
2022/03/01 10:45:00;;;;;;;7.10;3.70;;;;;;;18.46;34.73;101900.75;103212;1315;61312;-80
2022/03/01 10:47:26;;;;;;;9.10;3.60;;;;;;;18.46;34.59;101899.15;103432;1314;61348;-84
2022/03/01 10:50:00;;;;;;;9.10;4.10;;;;;;;18.47;34.39;101897.64;102996;1315;61466;-79
2022/03/01 10:52:32;;;;;;;8.00;3.90;;;;;;;18.44;34.20;101894.23;104502;1313;75697;-80
2022/03/01 10:54:58;;;;;;;9.20;4.20;;;;;;;18.17;33.92;101893.21;104417;1314;61971;-80
2022/03/01 10:57:24;;;;;;;9.00;4.00;;;;;;;18.03;34.10;101890.05;104465;1314;61524;-79
2022/03/01 10:59:51;;;;;;;12.50;4.30;;;;;;;18.00;34.19;101889.27;104280;1314;59660;-80
2022/03/01 11:02:17;;;;;;;8.30;4.10;;;;;;;18.02;34.26;101885.63;104622;1313;59885;-79
2022/03/01 11:04:44;;;;;;;11.60;4.10;;;;;;;18.07;34.39;101881.52;104356;1316;59261;-80
2022/03/01 11:07:11;;;;;;;12.30;4.50;;;;;;;18.14;34.27;101876.25;104593;1314;59297;-80
2022/03/01 11:09:37;;;;;;;11.90;4.40;;;;;;;18.19;34.24;101879.00;104727;1308;59517;-80
2022/03/01 11:12:05;;;;;;;9.60;4.50;;;;;;;18.26;34.44;101873.41;105093;1308;59438;-80
2022/03/01 11:15:16;;;;;;;8.40;4.20;;;;;;;18.33;34.46;101875.10;103928;1307;61312;-79
2022/03/01 11:18:19;;;;;;;13.30;4.40;;;;;;;18.38;34.65;101868.62;103141;1316;61384;-80
2022/03/01 11:20:47;;;;;;;14.90;4.80;;;;;;;18.46;34.45;101866.17;102948;1316;73090;-80
2022/03/01 11:23:15;;;;;;;12.50;4.60;;;;;;;18.51;34.54;101864.17;103875;1314;74808;-80
2022/03/01 11:25:46;;;;;;;13.40;4.40;;;;;;;18.56;34.50;101862.17;103024;1316;61217;-82
2022/03/01 11:28:12;;;;;;;11.50;4.40;;;;;;;18.61;34.77;101864.06;102901;1315;62068;-79
2022/03/01 11:30:40;;;;;;;13.50;4.40;;;;;;;18.66;34.80;101856.73;103143;1314;61364;-80
2022/03/01 11:33:05;;;;;;;10.20;4.60;;;;;;;18.70;34.98;101858.16;102861;1314;73811;-82
2022/03/01 11:35:33;;;;;;;15.00;4.50;;;;;;;18.72;34.97;101858.25;103420;1316;61303;-80
2022/03/01 11:38:08;;;;;;;8.90;4.60;;;;;;;18.75;35.09;101856.15;103543;1316;61289;-80
2022/03/01 11:40:36;;;;;;;14.60;5.00;;;;;;;18.77;34.89;101852.84;103281;1315;73352;-80
2022/03/01 11:43:12;;;;;;;10.40;4.30;;;;;;;18.77;35.05;101849.81;103533;1315;74846;-79
2022/03/01 11:45:49;;;;;;;9.60;4.60;;;;;;;18.78;35.15;101852.10;103082;1315;61176;-80
2022/03/01 11:48:19;;;;;;;10.40;4.40;;;;;;;18.80;34.90;101850.91;104479;1315;61237;-80
2022/03/01 11:50:50;;;;;;;6.70;3.80;;;;;;;18.82;34.88;101849.05;104276;1314;73859;-81
2022/03/01 11:53:18;;;;;;;8.60;4.90;;;;;;;18.79;34.73;101849.37;104290;1313;74859;-81
2022/03/01 11:55:51;;;;;;;11.20;4.90;;;;;;;18.61;34.21;101852.32;105122;1308;60481;-81
2022/03/01 11:58:17;;;;;;;8.80;4.70;;;;;;;18.32;33.93;101847.86;105110;1309;60624;-80
2022/03/01 12:00:43;;;;;;;8.30;5.10;;;;;;;18.19;33.97;101845.02;105134;1307;59612;-80
2022/03/01 12:03:16;;;;;;;8.20;4.60;;;;;;;17.82;33.57;101843.67;105143;1307;59635;-80
2022/03/01 12:05:45;;;;;;;8.90;5.00;;;;;;;17.72;33.79;101839.09;105186;1307;60191;-80
2022/03/01 12:08:12;;;;;;;9.70;5.40;;;;;;;17.79;33.77;101836.30;104250;1308;60203;-82
2022/03/01 12:10:39;;;;;;;8.70;4.60;;;;;;;17.87;33.77;101834.56;103626;1309;73818;-83
2022/03/01 12:13:17;;;;;;;10.20;4.90;;;;;;;17.97;33.81;101831.33;103744;1307;75598;-81
2022/03/01 12:15:44;;;;;;;9.20;4.70;;;;;;;18.07;33.82;101829.33;103693;1309;61217;-80
2022/03/01 12:18:19;;;;;;;8.50;4.90;;;;;;;18.16;33.88;101830.02;103776;1306;61306;-83
2022/03/01 12:20:47;;;;;;;8.70;4.60;;;;;;;18.23;33.81;101829.70;104103;1306;74029;-81
2022/03/01 12:23:27;;;;;;;10.40;4.30;;;;;;;18.22;33.76;101825.11;103610;1309;61618;-81
2022/03/01 12:26:05;;;;;;;7.50;4.70;;;;;;;18.18;33.71;101826.38;103603;1308;61675;-80
2022/03/01 12:28:37;;;;;;;8.80;4.70;;;;;;;18.09;33.55;101822.46;103807;1306;61542;-80
2022/03/01 12:31:30;;;;;;;8.00;4.40;;;;;;;18.02;33.41;101819.55;103746;1307;73327;-81
2022/03/01 12:34:06;;;;;;;11.10;4.60;;;;;;;17.97;33.48;101816.91;103474;1315;75712;-80
2022/03/01 12:36:39;;;;;;;8.30;4.50;;;;;;;17.96;33.53;101814.84;103543;1315;61510;-80
2022/03/01 12:39:11;;;;;;;9.70;4.70;;;;;;;17.93;33.66;101814.91;103766;1315;61682;-80
2022/03/01 12:42:04;;;;;;;10.30;4.60;;;;;;;17.92;33.76;101811.04;103813;1313;71733;-83
2022/03/01 12:44:33;;;;;;;14.00;4.50;;;;;;;17.86;33.61;101811.45;103599;1314;74641;-80
2022/03/01 12:47:06;;;;;;;7.10;4.70;;;;;;;17.83;33.47;101813.02;103322;1314;61299;-80